sensor_id;sensor_type;location;lat;lon;timestamp;P1;durP1;ratioP1;P2;durP2;ratioP2
76978;SDS011;65911;47.502;19.148;2024-03-17T00:02:01;7.97;;;4.78;;
76978;SDS011;65911;47.502;19.148;2024-03-17T00:05:03;6.83;;;4.80;;
76978;SDS011;65911;47.502;19.148;2024-03-17T00:08:05;6.40;;;3.90;;
76978;SDS011;65911;47.502;19.148;2024-03-17T00:11:06;6.40;;;3.75;;
76978;SDS011;65911;47.502;19.148;2024-03-17T00:14:07;5.95;;;3.42;;
76978;SDS011;65911;47.502;19.148;2024-03-17T00:17:08;5.75;;;2.78;;
76978;SDS011;65911;47.502;19.148;2024-03-17T00:20:10;4.07;;;2.63;;
76978;SDS011;65911;47.502;19.148;2024-03-17T00:23:19;5.32;;;2.53;;
76978;SDS011;65911;47.502;19.148;2024-03-17T00:26:21;4.50;;;2.03;;
76978;SDS011;65911;47.502;19.148;2024-03-17T00:29:23;2.55;;;1.70;;
76978;SDS011;65911;47.502;19.148;2024-03-17T00:32:24;2.80;;;1.60;;
76978;SDS011;65911;47.502;19.148;2024-03-17T00:35:26;3.00;;;1.67;;
76978;SDS011;65911;47.502;19.148;2024-03-17T00:38:27;3.13;;;1.95;;
76978;SDS011;65911;47.502;19.148;2024-03-17T00:41:28;1.92;;;1.50;;
76978;SDS011;65911;47.502;19.148;2024-03-17T00:44:30;2.58;;;1.58;;
76978;SDS011;65911;47.502;19.148;2024-03-17T00:47:31;2.60;;;1.38;;
76978;SDS011;65911;47.502;19.148;2024-03-17T00:50:32;2.13;;;1.33;;
76978;SDS011;65911;47.502;19.148;2024-03-17T00:53:34;1.95;;;1.27;;
76978;SDS011;65911;47.502;19.148;2024-03-17T00:56:35;1.73;;;1.10;;
76978;SDS011;65911;47.502;19.148;2024-03-17T00:59:36;4.10;;;1.00;;
76978;SDS011;65911;47.502;19.148;2024-03-17T01:02:37;2.15;;;1.20;;
76978;SDS011;65911;47.502;19.148;2024-03-17T01:05:38;2.30;;;1.10;;
76978;SDS011;65911;47.502;19.148;2024-03-17T01:08:44;1.98;;;1.17;;
76978;SDS011;65911;47.502;19.148;2024-03-17T01:11:45;1.20;;;0.90;;
76978;SDS011;65911;47.502;19.148;2024-03-17T01:14:46;1.52;;;1.08;;
76978;SDS011;65911;47.502;19.148;2024-03-17T01:17:47;1.30;;;1.20;;
76978;SDS011;65911;47.502;19.148;2024-03-17T01:20:49;1.80;;;1.00;;
76978;SDS011;65911;47.502;19.148;2024-03-17T01:23:50;3.08;;;1.20;;
76978;SDS011;65911;47.502;19.148;2024-03-17T01:26:52;1.10;;;0.90;;
76978;SDS011;65911;47.502;19.148;2024-03-17T01:29:54;1.45;;;1.10;;
76978;SDS011;65911;47.502;19.148;2024-03-17T01:32:55;1.60;;;1.20;;
76978;SDS011;65911;47.502;19.148;2024-03-17T01:35:56;3.13;;;1.20;;
76978;SDS011;65911;47.502;19.148;2024-03-17T01:38:57;1.67;;;1.02;;
76978;SDS011;65911;47.502;19.148;2024-03-17T01:41:59;1.83;;;1.73;;
76978;SDS011;65911;47.502;19.148;2024-03-17T01:45:00;2.30;;;0.90;;
76978;SDS011;65911;47.502;19.148;2024-03-17T01:48:02;1.40;;;1.17;;
76978;SDS011;65911;47.502;19.148;2024-03-17T01:51:04;2.35;;;1.10;;
76978;SDS011;65911;47.502;19.148;2024-03-17T01:54:05;1.00;;;0.85;;
76978;SDS011;65911;47.502;19.148;2024-03-17T01:57:07;1.83;;;0.90;;
76978;SDS011;65911;47.502;19.148;2024-03-17T02:00:08;2.35;;;1.10;;
76978;SDS011;65911;47.502;19.148;2024-03-17T02:03:13;1.52;;;1.20;;
76978;SDS011;65911;47.502;19.148;2024-03-17T02:06:14;1.97;;;1.50;;
76978;SDS011;65911;47.502;19.148;2024-03-17T02:09:15;1.13;;;1.02;;
76978;SDS011;65911;47.502;19.148;2024-03-17T02:12:19;1.50;;;1.40;;
76978;SDS011;65911;47.502;19.148;2024-03-17T02:15:20;1.27;;;1.17;;
76978;SDS011;65911;47.502;19.148;2024-03-17T02:18:22;2.72;;;1.40;;
76978;SDS011;65911;47.502;19.148;2024-03-17T02:21:23;5.60;;;1.50;;
76978;SDS011;65911;47.502;19.148;2024-03-17T02:24:25;1.80;;;1.33;;
76978;SDS011;65911;47.502;19.148;2024-03-17T02:27:27;1.57;;;1.27;;
76978;SDS011;65911;47.502;19.148;2024-03-17T02:30:28;1.80;;;1.60;;
76978;SDS011;65911;47.502;19.148;2024-03-17T02:33:29;1.70;;;1.30;;
76978;SDS011;65911;47.502;19.148;2024-03-17T02:36:31;3.10;;;1.40;;
76978;SDS011;65911;47.502;19.148;2024-03-17T02:39:33;1.65;;;1.40;;
76978;SDS011;65911;47.502;19.148;2024-03-17T02:42:35;2.00;;;1.30;;
76978;SDS011;65911;47.502;19.148;2024-03-17T02:45:36;2.78;;;1.58;;
76978;SDS011;65911;47.502;19.148;2024-03-17T02:48:37;1.50;;;1.40;;
76978;SDS011;65911;47.502;19.148;2024-03-17T02:51:45;2.03;;;1.30;;
76978;SDS011;65911;47.502;19.148;2024-03-17T02:54:46;2.72;;;1.92;;
76978;SDS011;65911;47.502;19.148;2024-03-17T02:57:47;2.60;;;1.50;;
76978;SDS011;65911;47.502;19.148;2024-03-17T03:00:49;1.60;;;1.35;;
76978;SDS011;65911;47.502;19.148;2024-03-17T03:03:50;1.67;;;1.17;;
76978;SDS011;65911;47.502;19.148;2024-03-17T03:06:52;2.73;;;1.30;;
76978;SDS011;65911;47.502;19.148;2024-03-17T03:09:53;3.17;;;1.75;;
76978;SDS011;65911;47.502;19.148;2024-03-17T03:12:55;2.03;;;1.88;;
76978;SDS011;65911;47.502;19.148;2024-03-17T03:15:56;1.70;;;1.60;;
76978;SDS011;65911;47.502;19.148;2024-03-17T03:18:57;2.03;;;1.48;;
76978;SDS011;65911;47.502;19.148;2024-03-17T03:21:59;1.90;;;1.40;;
76978;SDS011;65911;47.502;19.148;2024-03-17T03:25:00;1.95;;;1.73;;
76978;SDS011;65911;47.502;19.148;2024-03-17T03:28:01;1.30;;;1.20;;
76978;SDS011;65911;47.502;19.148;2024-03-17T03:31:03;1.48;;;1.20;;
76978;SDS011;65911;47.502;19.148;2024-03-17T03:34:05;2.25;;;1.52;;
76978;SDS011;65911;47.502;19.148;2024-03-17T03:37:08;2.70;;;1.33;;
76978;SDS011;65911;47.502;19.148;2024-03-17T03:40:11;1.67;;;1.40;;
76978;SDS011;65911;47.502;19.148;2024-03-17T03:43:17;1.27;;;1.13;;
76978;SDS011;65911;47.502;19.148;2024-03-17T03:46:18;1.67;;;1.08;;
76978;SDS011;65911;47.502;19.148;2024-03-17T03:49:20;2.47;;;1.50;;
76978;SDS011;65911;47.502;19.148;2024-03-17T03:52:21;2.08;;;1.30;;
76978;SDS011;65911;47.502;19.148;2024-03-17T03:55:23;1.45;;;1.10;;
76978;SDS011;65911;47.502;19.148;2024-03-17T03:58:24;2.27;;;1.10;;
76978;SDS011;65911;47.502;19.148;2024-03-17T04:01:26;1.27;;;0.98;;
76978;SDS011;65911;47.502;19.148;2024-03-17T04:04:27;1.38;;;1.23;;
76978;SDS011;65911;47.502;19.148;2024-03-17T04:07:28;1.67;;;1.50;;
76978;SDS011;65911;47.502;19.148;2024-03-17T04:10:29;1.92;;;1.27;;
76978;SDS011;65911;47.502;19.148;2024-03-17T04:13:31;1.80;;;1.48;;
76978;SDS011;65911;47.502;19.148;2024-03-17T04:16:32;1.90;;;1.23;;
76978;SDS011;65911;47.502;19.148;2024-03-17T04:19:33;2.40;;;1.50;;
76978;SDS011;65911;47.502;19.148;2024-03-17T04:22:35;1.67;;;1.58;;
76978;SDS011;65911;47.502;19.148;2024-03-17T04:25:36;1.27;;;1.17;;
76978;SDS011;65911;47.502;19.148;2024-03-17T04:28:38;1.70;;;1.40;;
76978;SDS011;65911;47.502;19.148;2024-03-17T04:31:39;1.98;;;1.30;;
76978;SDS011;65911;47.502;19.148;2024-03-17T04:34:43;1.67;;;1.30;;
76978;SDS011;65911;47.502;19.148;2024-03-17T04:37:44;1.80;;;1.63;;
76978;SDS011;65911;47.502;19.148;2024-03-17T04:40:46;1.35;;;1.13;;
76978;SDS011;65911;47.502;19.148;2024-03-17T04:43:47;1.65;;;1.55;;
76978;SDS011;65911;47.502;19.148;2024-03-17T04:46:48;3.50;;;1.55;;
76978;SDS011;65911;47.502;19.148;2024-03-17T04:49:50;2.20;;;1.52;;
76978;SDS011;65911;47.502;19.148;2024-03-17T04:52:51;1.55;;;1.33;;
76978;SDS011;65911;47.502;19.148;2024-03-17T04:56:03;1.80;;;1.10;;
76978;SDS011;65911;47.502;19.148;2024-03-17T04:59:05;1.90;;;0.90;;
76978;SDS011;65911;47.502;19.148;2024-03-17T05:02:07;2.88;;;1.20;;
76978;SDS011;65911;47.502;19.148;2024-03-17T05:05:08;2.55;;;1.20;;
76978;SDS011;65911;47.502;19.148;2024-03-17T05:08:11;1.30;;;1.20;;
76978;SDS011;65911;47.502;19.148;2024-03-17T05:11:12;1.65;;;1.20;;
76978;SDS011;65911;47.502;19.148;2024-03-17T05:14:15;1.83;;;1.42;;
76978;SDS011;65911;47.502;19.148;2024-03-17T05:17:16;2.70;;;1.40;;
76978;SDS011;65911;47.502;19.148;2024-03-17T05:20:17;2.13;;;1.42;;
76978;SDS011;65911;47.502;19.148;2024-03-17T05:23:19;1.90;;;1.60;;
76978;SDS011;65911;47.502;19.148;2024-03-17T05:26:20;1.55;;;1.15;;
76978;SDS011;65911;47.502;19.148;2024-03-17T05:29:21;2.97;;;1.20;;
76978;SDS011;65911;47.502;19.148;2024-03-17T05:32:23;2.20;;;1.83;;
76978;SDS011;65911;47.502;19.148;2024-03-17T05:35:24;1.25;;;1.13;;
76978;SDS011;65911;47.502;19.148;2024-03-17T05:38:26;1.70;;;1.40;;
76978;SDS011;65911;47.502;19.148;2024-03-17T05:41:28;4.05;;;1.15;;
76978;SDS011;65911;47.502;19.148;2024-03-17T05:44:29;1.95;;;1.63;;
76978;SDS011;65911;47.502;19.148;2024-03-17T05:47:34;1.77;;;1.30;;
76978;SDS011;65911;47.502;19.148;2024-03-17T05:50:35;2.28;;;1.33;;
76978;SDS011;65911;47.502;19.148;2024-03-17T05:53:37;1.83;;;1.23;;
76978;SDS011;65911;47.502;19.148;2024-03-17T05:56:45;2.60;;;1.52;;
76978;SDS011;65911;47.502;19.148;2024-03-17T05:59:46;1.90;;;1.20;;
76978;SDS011;65911;47.502;19.148;2024-03-17T06:02:47;2.00;;;1.42;;
76978;SDS011;65911;47.502;19.148;2024-03-17T06:05:49;2.55;;;1.40;;
76978;SDS011;65911;47.502;19.148;2024-03-17T06:08:50;1.60;;;1.37;;
76978;SDS011;65911;47.502;19.148;2024-03-17T06:11:52;1.98;;;1.25;;
76978;SDS011;65911;47.502;19.148;2024-03-17T06:14:53;1.90;;;1.73;;
76978;SDS011;65911;47.502;19.148;2024-03-17T06:17:55;3.38;;;1.00;;
76978;SDS011;65911;47.502;19.148;2024-03-17T06:20:56;3.20;;;1.30;;
76978;SDS011;65911;47.502;19.148;2024-03-17T06:24:00;2.88;;;1.27;;
76978;SDS011;65911;47.502;19.148;2024-03-17T06:27:02;2.97;;;1.40;;
76978;SDS011;65911;47.502;19.148;2024-03-17T06:30:03;2.23;;;1.53;;
76978;SDS011;65911;47.502;19.148;2024-03-17T06:33:05;2.80;;;1.17;;
76978;SDS011;65911;47.502;19.148;2024-03-17T06:36:06;2.05;;;1.23;;
76978;SDS011;65911;47.502;19.148;2024-03-17T06:39:08;2.27;;;1.53;;
76978;SDS011;65911;47.502;19.148;2024-03-17T06:42:09;2.63;;;1.20;;
76978;SDS011;65911;47.502;19.148;2024-03-17T06:45:11;2.70;;;1.00;;
76978;SDS011;65911;47.502;19.148;2024-03-17T06:48:13;1.88;;;1.42;;
76978;SDS011;65911;47.502;19.148;2024-03-17T06:51:14;1.90;;;1.38;;
76978;SDS011;65911;47.502;19.148;2024-03-17T06:54:15;2.30;;;1.48;;
76978;SDS011;65911;47.502;19.148;2024-03-17T06:57:16;1.60;;;1.35;;
76978;SDS011;65911;47.502;19.148;2024-03-17T07:00:18;1.80;;;1.10;;
76978;SDS011;65911;47.502;19.148;2024-03-17T07:03:26;2.10;;;1.65;;
76978;SDS011;65911;47.502;19.148;2024-03-17T07:06:28;1.50;;;1.00;;
76978;SDS011;65911;47.502;19.148;2024-03-17T07:09:30;1.67;;;1.27;;
76978;SDS011;65911;47.502;19.148;2024-03-17T07:12:31;1.90;;;1.13;;
76978;SDS011;65911;47.502;19.148;2024-03-17T07:15:33;1.92;;;1.40;;
76978;SDS011;65911;47.502;19.148;2024-03-17T07:18:34;2.22;;;1.27;;
76978;SDS011;65911;47.502;19.148;2024-03-17T07:21:36;2.28;;;1.30;;
76978;SDS011;65911;47.502;19.148;2024-03-17T07:24:37;3.50;;;1.20;;
76978;SDS011;65911;47.502;19.148;2024-03-17T07:27:38;2.55;;;0.98;;
76978;SDS011;65911;47.502;19.148;2024-03-17T07:30:46;2.73;;;0.90;;
76978;SDS011;65911;47.502;19.148;2024-03-17T07:33:51;2.70;;;0.82;;
76978;SDS011;65911;47.502;19.148;2024-03-17T07:36:52;1.60;;;0.90;;
76978;SDS011;65911;47.502;19.148;2024-03-17T07:39:53;2.90;;;0.90;;
76978;SDS011;65911;47.502;19.148;2024-03-17T07:42:55;2.75;;;1.15;;
76978;SDS011;65911;47.502;19.148;2024-03-17T07:46:03;1.67;;;1.13;;
76978;SDS011;65911;47.502;19.148;2024-03-17T07:49:05;1.80;;;1.08;;
76978;SDS011;65911;47.502;19.148;2024-03-17T07:52:06;3.35;;;1.33;;
76978;SDS011;65911;47.502;19.148;2024-03-17T07:55:08;1.75;;;1.30;;
76978;SDS011;65911;47.502;19.148;2024-03-17T07:58:10;4.90;;;1.20;;
76978;SDS011;65911;47.502;19.148;2024-03-17T08:01:12;1.60;;;0.90;;
76978;SDS011;65911;47.502;19.148;2024-03-17T08:04:14;1.60;;;0.80;;
76978;SDS011;65911;47.502;19.148;2024-03-17T08:07:15;3.42;;;1.08;;
76978;SDS011;65911;47.502;19.148;2024-03-17T08:10:16;3.27;;;1.10;;
76978;SDS011;65911;47.502;19.148;2024-03-17T08:13:18;2.63;;;1.00;;
76978;SDS011;65911;47.502;19.148;2024-03-17T08:16:20;2.67;;;1.08;;
76978;SDS011;65911;47.502;19.148;2024-03-17T08:19:22;1.67;;;1.10;;
76978;SDS011;65911;47.502;19.148;2024-03-17T08:22:23;2.33;;;1.23;;
76978;SDS011;65911;47.502;19.148;2024-03-17T08:25:24;3.67;;;1.30;;
76978;SDS011;65911;47.502;19.148;2024-03-17T08:28:26;2.40;;;1.08;;
76978;SDS011;65911;47.502;19.148;2024-03-17T08:31:28;1.63;;;0.70;;
76978;SDS011;65911;47.502;19.148;2024-03-17T08:34:29;1.83;;;1.13;;
76978;SDS011;65911;47.502;19.148;2024-03-17T08:37:30;1.67;;;0.80;;
76978;SDS011;65911;47.502;19.148;2024-03-17T08:40:32;3.53;;;0.93;;
76978;SDS011;65911;47.502;19.148;2024-03-17T08:43:33;2.30;;;0.95;;
76978;SDS011;65911;47.502;19.148;2024-03-17T08:46:37;2.53;;;0.90;;
76978;SDS011;65911;47.502;19.148;2024-03-17T08:49:38;2.00;;;1.05;;
76978;SDS011;65911;47.502;19.148;2024-03-17T08:52:39;2.17;;;1.13;;
76978;SDS011;65911;47.502;19.148;2024-03-17T08:55:41;2.88;;;1.15;;
76978;SDS011;65911;47.502;19.148;2024-03-17T08:58:42;2.42;;;1.20;;
76978;SDS011;65911;47.502;19.148;2024-03-17T09:01:43;3.60;;;1.13;;
76978;SDS011;65911;47.502;19.148;2024-03-17T09:04:45;4.28;;;0.80;;
76978;SDS011;65911;47.502;19.148;2024-03-17T09:07:46;2.25;;;1.00;;
76978;SDS011;65911;47.502;19.148;2024-03-17T09:10:48;1.90;;;0.80;;
76978;SDS011;65911;47.502;19.148;2024-03-17T09:13:50;2.33;;;0.80;;
76978;SDS011;65911;47.502;19.148;2024-03-17T09:16:52;2.38;;;1.00;;
76978;SDS011;65911;47.502;19.148;2024-03-17T09:19:53;3.25;;;0.90;;
76978;SDS011;65911;47.502;19.148;2024-03-17T09:22:54;2.05;;;0.73;;
76978;SDS011;65911;47.502;19.148;2024-03-17T09:25:57;3.03;;;1.00;;
76978;SDS011;65911;47.502;19.148;2024-03-17T09:28:59;2.53;;;0.98;;
76978;SDS011;65911;47.502;19.148;2024-03-17T09:32:00;2.50;;;1.07;;
76978;SDS011;65911;47.502;19.148;2024-03-17T09:35:02;4.55;;;1.20;;
76978;SDS011;65911;47.502;19.148;2024-03-17T09:38:04;1.77;;;0.93;;
76978;SDS011;65911;47.502;19.148;2024-03-17T09:41:05;2.27;;;1.00;;
76978;SDS011;65911;47.502;19.148;2024-03-17T09:44:11;3.60;;;1.13;;
76978;SDS011;65911;47.502;19.148;2024-03-17T09:47:20;2.55;;;1.20;;
76978;SDS011;65911;47.502;19.148;2024-03-17T09:50:24;2.78;;;1.10;;
76978;SDS011;65911;47.502;19.148;2024-03-17T09:53:27;2.95;;;1.45;;
76978;SDS011;65911;47.502;19.148;2024-03-17T09:56:29;4.53;;;1.17;;
76978;SDS011;65911;47.502;19.148;2024-03-17T09:59:32;3.03;;;0.70;;
76978;SDS011;65911;47.502;19.148;2024-03-17T10:02:33;4.10;;;0.97;;
76978;SDS011;65911;47.502;19.148;2024-03-17T10:05:34;2.88;;;1.10;;
76978;SDS011;65911;47.502;19.148;2024-03-17T10:08:39;2.00;;;0.85;;
76978;SDS011;65911;47.502;19.148;2024-03-17T10:11:44;2.23;;;0.97;;
76978;SDS011;65911;47.502;19.148;2024-03-17T10:14:57;1.70;;;0.60;;
76978;SDS011;65911;47.502;19.148;2024-03-17T10:18:02;2.85;;;0.90;;
76978;SDS011;65911;47.502;19.148;2024-03-17T10:21:03;1.75;;;0.85;;
76978;SDS011;65911;47.502;19.148;2024-03-17T10:24:27;2.55;;;0.98;;
76978;SDS011;65911;47.502;19.148;2024-03-17T10:27:29;2.25;;;1.02;;
76978;SDS011;65911;47.502;19.148;2024-03-17T10:30:30;1.20;;;0.55;;
76978;SDS011;65911;47.502;19.148;2024-03-17T10:33:32;2.73;;;0.97;;
76978;SDS011;65911;47.502;19.148;2024-03-17T10:36:33;3.33;;;0.90;;
76978;SDS011;65911;47.502;19.148;2024-03-17T10:39:35;4.35;;;0.90;;
76978;SDS011;65911;47.502;19.148;2024-03-17T10:42:36;1.87;;;1.20;;
76978;SDS011;65911;47.502;19.148;2024-03-17T10:45:39;2.25;;;0.70;;
76978;SDS011;65911;47.502;19.148;2024-03-17T10:48:42;3.17;;;1.10;;
76978;SDS011;65911;47.502;19.148;2024-03-17T10:51:45;2.17;;;1.10;;
76978;SDS011;65911;47.502;19.148;2024-03-17T10:54:49;3.15;;;0.98;;
76978;SDS011;65911;47.502;19.148;2024-03-17T10:57:52;1.90;;;0.90;;
76978;SDS011;65911;47.502;19.148;2024-03-17T11:00:54;3.45;;;1.17;;
76978;SDS011;65911;47.502;19.148;2024-03-17T11:03:58;1.90;;;0.60;;
76978;SDS011;65911;47.502;19.148;2024-03-17T11:07:00;2.90;;;0.98;;
76978;SDS011;65911;47.502;19.148;2024-03-17T11:10:01;3.60;;;0.88;;
76978;SDS011;65911;47.502;19.148;2024-03-17T11:13:04;2.30;;;0.60;;
76978;SDS011;65911;47.502;19.148;2024-03-17T11:16:06;2.28;;;0.95;;
76978;SDS011;65911;47.502;19.148;2024-03-17T11:19:26;2.90;;;0.88;;
76978;SDS011;65911;47.502;19.148;2024-03-17T11:22:44;3.72;;;0.93;;
76978;SDS011;65911;47.502;19.148;2024-03-17T11:25:52;1.83;;;1.00;;
76978;SDS011;65911;47.502;19.148;2024-03-17T11:28:54;1.73;;;1.17;;
76978;SDS011;65911;47.502;19.148;2024-03-17T11:31:56;4.70;;;1.08;;
76978;SDS011;65911;47.502;19.148;2024-03-17T11:35:13;2.50;;;0.63;;
76978;SDS011;65911;47.502;19.148;2024-03-17T11:41:53;2.65;;;1.00;;
76978;SDS011;65911;47.502;19.148;2024-03-17T11:44:55;1.80;;;1.10;;
76978;SDS011;65911;47.502;19.148;2024-03-17T11:47:59;2.65;;;0.73;;
76978;SDS011;65911;47.502;19.148;2024-03-17T11:51:00;3.05;;;1.27;;
76978;SDS011;65911;47.502;19.148;2024-03-17T11:54:02;2.03;;;0.82;;
76978;SDS011;65911;47.502;19.148;2024-03-17T11:57:05;2.83;;;0.88;;
76978;SDS011;65911;47.502;19.148;2024-03-17T12:00:15;2.80;;;0.70;;
76978;SDS011;65911;47.502;19.148;2024-03-17T12:03:20;2.60;;;0.82;;
76978;SDS011;65911;47.502;19.148;2024-03-17T12:06:22;2.10;;;0.90;;
76978;SDS011;65911;47.502;19.148;2024-03-17T12:09:24;2.22;;;1.08;;
76978;SDS011;65911;47.502;19.148;2024-03-17T12:12:27;2.25;;;0.77;;
76978;SDS011;65911;47.502;19.148;2024-03-17T12:15:37;1.97;;;0.80;;
76978;SDS011;65911;47.502;19.148;2024-03-17T12:18:38;2.25;;;0.88;;
76978;SDS011;65911;47.502;19.148;2024-03-17T12:21:47;2.40;;;0.95;;
76978;SDS011;65911;47.502;19.148;2024-03-17T12:24:51;2.10;;;0.95;;
76978;SDS011;65911;47.502;19.148;2024-03-17T12:27:54;2.00;;;0.77;;
76978;SDS011;65911;47.502;19.148;2024-03-17T12:30:56;1.90;;;0.90;;
76978;SDS011;65911;47.502;19.148;2024-03-17T12:34:00;2.47;;;0.98;;
76978;SDS011;65911;47.502;19.148;2024-03-17T12:37:01;1.47;;;0.73;;
76978;SDS011;65911;47.502;19.148;2024-03-17T12:40:03;2.22;;;0.80;;
76978;SDS011;65911;47.502;19.148;2024-03-17T12:43:05;2.40;;;0.90;;
76978;SDS011;65911;47.502;19.148;2024-03-17T12:46:10;2.07;;;1.00;;
76978;SDS011;65911;47.502;19.148;2024-03-17T12:49:14;2.33;;;0.85;;
76978;SDS011;65911;47.502;19.148;2024-03-17T12:52:25;3.33;;;0.80;;
76978;SDS011;65911;47.502;19.148;2024-03-17T12:55:30;1.70;;;0.80;;
76978;SDS011;65911;47.502;19.148;2024-03-17T12:58:51;2.20;;;0.73;;
76978;SDS011;65911;47.502;19.148;2024-03-17T13:02:14;1.75;;;0.95;;
76978;SDS011;65911;47.502;19.148;2024-03-17T13:05:17;2.22;;;0.47;;
76978;SDS011;65911;47.502;19.148;2024-03-17T13:08:19;2.10;;;0.60;;
76978;SDS011;65911;47.502;19.148;2024-03-17T13:11:20;1.92;;;0.70;;
76978;SDS011;65911;47.502;19.148;2024-03-17T13:14:21;1.77;;;0.68;;
76978;SDS011;65911;47.502;19.148;2024-03-17T13:17:22;2.40;;;0.77;;
76978;SDS011;65911;47.502;19.148;2024-03-17T13:20:24;1.60;;;0.60;;
76978;SDS011;65911;47.502;19.148;2024-03-17T13:23:26;2.03;;;0.50;;
76978;SDS011;65911;47.502;19.148;2024-03-17T13:26:27;1.38;;;0.70;;
76978;SDS011;65911;47.502;19.148;2024-03-17T13:29:29;1.75;;;0.70;;
76978;SDS011;65911;47.502;19.148;2024-03-17T13:32:33;2.80;;;0.90;;
76978;SDS011;65911;47.502;19.148;2024-03-17T13:35:35;1.38;;;0.70;;
76978;SDS011;65911;47.502;19.148;2024-03-17T13:38:40;3.17;;;0.73;;
76978;SDS011;65911;47.502;19.148;2024-03-17T13:41:42;0.95;;;0.60;;
76978;SDS011;65911;47.502;19.148;2024-03-17T13:44:43;1.85;;;0.60;;
76978;SDS011;65911;47.502;19.148;2024-03-17T13:47:51;1.40;;;0.73;;
76978;SDS011;65911;47.502;19.148;2024-03-17T13:50:57;2.33;;;0.52;;
76978;SDS011;65911;47.502;19.148;2024-03-17T13:53:59;1.48;;;0.85;;
76978;SDS011;65911;47.502;19.148;2024-03-17T13:57:00;3.47;;;0.90;;
76978;SDS011;65911;47.502;19.148;2024-03-17T14:00:03;2.55;;;0.50;;
76978;SDS011;65911;47.502;19.148;2024-03-17T14:03:12;2.47;;;0.70;;
76978;SDS011;65911;47.502;19.148;2024-03-17T14:06:14;1.42;;;0.90;;
76978;SDS011;65911;47.502;19.148;2024-03-17T14:09:15;2.30;;;0.67;;
76978;SDS011;65911;47.502;19.148;2024-03-17T14:12:19;0.95;;;0.85;;
76978;SDS011;65911;47.502;19.148;2024-03-17T14:15:20;1.98;;;0.52;;
76978;SDS011;65911;47.502;19.148;2024-03-17T14:18:22;1.47;;;0.90;;
76978;SDS011;65911;47.502;19.148;2024-03-17T14:21:23;3.38;;;0.80;;
76978;SDS011;65911;47.502;19.148;2024-03-17T14:24:24;2.17;;;0.80;;
76978;SDS011;65911;47.502;19.148;2024-03-17T14:27:26;2.85;;;0.90;;
76978;SDS011;65911;47.502;19.148;2024-03-17T14:30:28;1.67;;;0.75;;
76978;SDS011;65911;47.502;19.148;2024-03-17T14:33:30;1.00;;;0.60;;
76978;SDS011;65911;47.502;19.148;2024-03-17T14:36:32;1.80;;;0.90;;
76978;SDS011;65911;47.502;19.148;2024-03-17T14:39:34;2.70;;;0.70;;
76978;SDS011;65911;47.502;19.148;2024-03-17T14:42:35;1.90;;;0.77;;
76978;SDS011;65911;47.502;19.148;2024-03-17T14:45:39;3.60;;;0.80;;
76978;SDS011;65911;47.502;19.148;2024-03-17T14:48:40;2.73;;;0.90;;
76978;SDS011;65911;47.502;19.148;2024-03-17T14:51:44;0.77;;;0.60;;
76978;SDS011;65911;47.502;19.148;2024-03-17T14:54:45;1.92;;;0.77;;
76978;SDS011;65911;47.502;19.148;2024-03-17T14:57:46;1.88;;;0.75;;
76978;SDS011;65911;47.502;19.148;2024-03-17T15:00:47;1.85;;;0.75;;
76978;SDS011;65911;47.502;19.148;2024-03-17T15:03:49;3.42;;;0.80;;
76978;SDS011;65911;47.502;19.148;2024-03-17T15:06:52;4.13;;;1.40;;
76978;SDS011;65911;47.502;19.148;2024-03-17T15:09:54;2.77;;;0.73;;
76978;SDS011;65911;47.502;19.148;2024-03-17T15:12:56;2.88;;;1.00;;
76978;SDS011;65911;47.502;19.148;2024-03-17T15:15:57;1.38;;;0.50;;
76978;SDS011;65911;47.502;19.148;2024-03-17T15:18:58;2.97;;;1.07;;
76978;SDS011;65911;47.502;19.148;2024-03-17T15:22:00;1.40;;;0.63;;
76978;SDS011;65911;47.502;19.148;2024-03-17T15:25:01;2.00;;;0.95;;
76978;SDS011;65911;47.502;19.148;2024-03-17T15:28:03;2.03;;;0.45;;
76978;SDS011;65911;47.502;19.148;2024-03-17T15:31:07;2.75;;;0.90;;
76978;SDS011;65911;47.502;19.148;2024-03-17T15:34:11;3.75;;;0.80;;
76978;SDS011;65911;47.502;19.148;2024-03-17T15:37:13;1.08;;;0.80;;
76978;SDS011;65911;47.502;19.148;2024-03-17T15:40:17;2.47;;;0.70;;
76978;SDS011;65911;47.502;19.148;2024-03-17T15:43:18;1.30;;;0.65;;
76978;SDS011;65911;47.502;19.148;2024-03-17T15:46:20;3.80;;;0.73;;
76978;SDS011;65911;47.502;19.148;2024-03-17T15:49:23;3.00;;;0.90;;
76978;SDS011;65911;47.502;19.148;2024-03-17T15:52:24;1.95;;;0.88;;
76978;SDS011;65911;47.502;19.148;2024-03-17T15:55:25;2.25;;;0.77;;
76978;SDS011;65911;47.502;19.148;2024-03-17T15:58:28;2.90;;;0.98;;
76978;SDS011;65911;47.502;19.148;2024-03-17T16:01:31;2.42;;;0.70;;
76978;SDS011;65911;47.502;19.148;2024-03-17T16:04:32;1.55;;;0.80;;
76978;SDS011;65911;47.502;19.148;2024-03-17T16:07:34;1.77;;;0.75;;
76978;SDS011;65911;47.502;19.148;2024-03-17T16:10:35;3.37;;;0.80;;
76978;SDS011;65911;47.502;19.148;2024-03-17T16:13:37;2.60;;;0.90;;
76978;SDS011;65911;47.502;19.148;2024-03-17T16:16:40;3.42;;;0.90;;
76978;SDS011;65911;47.502;19.148;2024-03-17T16:19:41;3.57;;;1.10;;
76978;SDS011;65911;47.502;19.148;2024-03-17T16:22:43;2.38;;;0.70;;
76978;SDS011;65911;47.502;19.148;2024-03-17T16:25:46;5.45;;;1.10;;
76978;SDS011;65911;47.502;19.148;2024-03-17T16:28:49;3.85;;;0.98;;
76978;SDS011;65911;47.502;19.148;2024-03-17T16:31:50;3.05;;;0.90;;
76978;SDS011;65911;47.502;19.148;2024-03-17T16:34:53;4.97;;;1.23;;
76978;SDS011;65911;47.502;19.148;2024-03-17T16:37:55;1.65;;;0.70;;
76978;SDS011;65911;47.502;19.148;2024-03-17T16:40:56;3.87;;;0.90;;
76978;SDS011;65911;47.502;19.148;2024-03-17T16:44:03;2.75;;;1.00;;
76978;SDS011;65911;47.502;19.148;2024-03-17T16:50:30;2.73;;;0.80;;
76978;SDS011;65911;47.502;19.148;2024-03-17T16:53:33;1.70;;;0.98;;
76978;SDS011;65911;47.502;19.148;2024-03-17T16:56:34;3.08;;;1.02;;
76978;SDS011;65911;47.502;19.148;2024-03-17T16:59:37;2.42;;;0.70;;
76978;SDS011;65911;47.502;19.148;2024-03-17T17:02:39;1.95;;;0.75;;
76978;SDS011;65911;47.502;19.148;2024-03-17T17:05:41;4.55;;;1.13;;
76978;SDS011;65911;47.502;19.148;2024-03-17T17:08:42;2.88;;;1.15;;
76978;SDS011;65911;47.502;19.148;2024-03-17T17:11:43;1.97;;;0.80;;
76978;SDS011;65911;47.502;19.148;2024-03-17T17:14:50;2.85;;;1.02;;
76978;SDS011;65911;47.502;19.148;2024-03-17T17:17:51;2.65;;;0.93;;
76978;SDS011;65911;47.502;19.148;2024-03-17T17:20:55;3.80;;;1.10;;
76978;SDS011;65911;47.502;19.148;2024-03-17T17:23:57;4.38;;;1.10;;
76978;SDS011;65911;47.502;19.148;2024-03-17T17:26:58;4.40;;;1.00;;
76978;SDS011;65911;47.502;19.148;2024-03-17T17:30:00;2.30;;;1.00;;
76978;SDS011;65911;47.502;19.148;2024-03-17T17:33:02;2.47;;;1.30;;
76978;SDS011;65911;47.502;19.148;2024-03-17T17:36:08;1.73;;;0.95;;
76978;SDS011;65911;47.502;19.148;2024-03-17T17:39:10;2.47;;;1.15;;
76978;SDS011;65911;47.502;19.148;2024-03-17T17:42:13;3.27;;;1.20;;
76978;SDS011;65911;47.502;19.148;2024-03-17T17:45:15;1.98;;;1.23;;
76978;SDS011;65911;47.502;19.148;2024-03-17T17:48:16;1.80;;;1.00;;
76978;SDS011;65911;47.502;19.148;2024-03-17T17:51:19;2.63;;;1.17;;
76978;SDS011;65911;47.502;19.148;2024-03-17T17:54:21;2.38;;;1.15;;
76978;SDS011;65911;47.502;19.148;2024-03-17T17:57:24;2.13;;;1.00;;
76978;SDS011;65911;47.502;19.148;2024-03-17T18:00:27;2.58;;;1.55;;
76978;SDS011;65911;47.502;19.148;2024-03-17T18:03:28;5.03;;;1.25;;
76978;SDS011;65911;47.502;19.148;2024-03-17T18:06:30;1.92;;;1.48;;
76978;SDS011;65911;47.502;19.148;2024-03-17T18:09:31;2.25;;;1.50;;